sensor_id;sensor_type;location;lat;lon;timestamp;pressure;altitude;pressure_sealevel;temperature
19666;BMP180;9980;51.020;7.772;2023-05-24T00:02:27;98112.00;;;12.40
19666;BMP180;9980;51.020;7.772;2023-05-24T00:04:54;98133.00;;;12.40
19666;BMP180;9980;51.020;7.772;2023-05-24T00:07:21;98123.00;;;12.30
19666;BMP180;9980;51.020;7.772;2023-05-24T00:09:53;98112.00;;;12.20
19666;BMP180;9980;51.020;7.772;2023-05-24T00:12:23;98122.00;;;12.20
19666;BMP180;9980;51.020;7.772;2023-05-24T00:14:50;98133.00;;;12.10
19666;BMP180;9980;51.020;7.772;2023-05-24T00:17:17;98133.00;;;12.10
19666;BMP180;9980;51.020;7.772;2023-05-24T00:19:44;98121.00;;;12.00
19666;BMP180;9980;51.020;7.772;2023-05-24T00:22:11;98120.00;;;12.00
19666;BMP180;9980;51.020;7.772;2023-05-24T00:24:39;98133.00;;;11.90
19666;BMP180;9980;51.020;7.772;2023-05-24T00:27:06;98125.00;;;11.90
19666;BMP180;9980;51.020;7.772;2023-05-24T00:29:33;98130.00;;;11.90
19666;BMP180;9980;51.020;7.772;2023-05-24T00:32:00;98128.00;;;11.80
19666;BMP180;9980;51.020;7.772;2023-05-24T00:34:29;98139.00;;;11.70
19666;BMP180;9980;51.020;7.772;2023-05-24T00:36:55;98133.00;;;11.70
19666;BMP180;9980;51.020;7.772;2023-05-24T00:39:25;98141.00;;;11.70
19666;BMP180;9980;51.020;7.772;2023-05-24T00:41:52;98130.00;;;11.60
19666;BMP180;9980;51.020;7.772;2023-05-24T00:44:19;98127.00;;;11.60
19666;BMP180;9980;51.020;7.772;2023-05-24T00:46:48;98126.00;;;11.50
19666;BMP180;9980;51.020;7.772;2023-05-24T00:49:16;98132.00;;;11.50
19666;BMP180;9980;51.020;7.772;2023-05-24T00:51:44;98117.00;;;11.50
19666;BMP180;9980;51.020;7.772;2023-05-24T00:54:12;98112.00;;;11.40
19666;BMP180;9980;51.020;7.772;2023-05-24T00:56:42;98105.00;;;11.40
19666;BMP180;9980;51.020;7.772;2023-05-24T00:59:09;98109.00;;;11.30
19666;BMP180;9980;51.020;7.772;2023-05-24T01:01:37;98121.00;;;11.30
19666;BMP180;9980;51.020;7.772;2023-05-24T01:04:04;98122.00;;;11.30
19666;BMP180;9980;51.020;7.772;2023-05-24T01:06:58;98116.00;;;11.20
19666;BMP180;9980;51.020;7.772;2023-05-24T01:12:27;98124.00;;;11.10
19666;BMP180;9980;51.020;7.772;2023-05-24T01:15:32;98108.00;;;11.00
19666;BMP180;9980;51.020;7.772;2023-05-24T01:18:16;98108.00;;;11.00
19666;BMP180;9980;51.020;7.772;2023-05-24T01:20:46;98103.00;;;10.90
19666;BMP180;9980;51.020;7.772;2023-05-24T01:23:46;98101.00;;;10.90
19666;BMP180;9980;51.020;7.772;2023-05-24T01:29:04;98095.00;;;10.80
19666;BMP180;9980;51.020;7.772;2023-05-24T01:31:33;98101.00;;;10.80
19666;BMP180;9980;51.020;7.772;2023-05-24T01:34:00;98091.00;;;10.70
19666;BMP180;9980;51.020;7.772;2023-05-24T01:36:27;98100.00;;;10.70
19666;BMP180;9980;51.020;7.772;2023-05-24T01:38:54;98093.00;;;10.70
19666;BMP180;9980;51.020;7.772;2023-05-24T01:41:40;98103.00;;;10.60
19666;BMP180;9980;51.020;7.772;2023-05-24T01:44:36;98107.00;;;10.60
19666;BMP180;9980;51.020;7.772;2023-05-24T01:47:17;98105.00;;;10.50
19666;BMP180;9980;51.020;7.772;2023-05-24T01:49:56;98098.00;;;10.50
19666;BMP180;9980;51.020;7.772;2023-05-24T01:52:30;98096.00;;;10.40
19666;BMP180;9980;51.020;7.772;2023-05-24T01:55:02;98097.00;;;10.40
19666;BMP180;9980;51.020;7.772;2023-05-24T01:57:33;98110.00;;;10.40
19666;BMP180;9980;51.020;7.772;2023-05-24T02:00:03;98103.00;;;10.40
19666;BMP180;9980;51.020;7.772;2023-05-24T02:02:38;98109.00;;;10.30
19666;BMP180;9980;51.020;7.772;2023-05-24T02:05:06;98095.00;;;10.30
19666;BMP180;9980;51.020;7.772;2023-05-24T02:07:33;98098.00;;;10.20
19666;BMP180;9980;51.020;7.772;2023-05-24T02:10:00;98093.00;;;10.20
19666;BMP180;9980;51.020;7.772;2023-05-24T02:12:28;98099.00;;;10.20
19666;BMP180;9980;51.020;7.772;2023-05-24T02:14:55;98088.00;;;10.20
19666;BMP180;9980;51.020;7.772;2023-05-24T02:17:23;98099.00;;;10.10
19666;BMP180;9980;51.020;7.772;2023-05-24T02:19:52;98090.00;;;10.10
19666;BMP180;9980;51.020;7.772;2023-05-24T02:22:19;98084.00;;;10.10
19666;BMP180;9980;51.020;7.772;2023-05-24T02:24:48;98072.00;;;10.00
19666;BMP180;9980;51.020;7.772;2023-05-24T02:27:15;98079.00;;;10.00
19666;BMP180;9980;51.020;7.772;2023-05-24T02:29:42;98064.00;;;9.90
19666;BMP180;9980;51.020;7.772;2023-05-24T02:32:09;98062.00;;;9.90
19666;BMP180;9980;51.020;7.772;2023-05-24T02:34:36;98064.00;;;9.90
19666;BMP180;9980;51.020;7.772;2023-05-24T02:37:03;98053.00;;;9.90
19666;BMP180;9980;51.020;7.772;2023-05-24T02:39:30;98051.00;;;9.80
19666;BMP180;9980;51.020;7.772;2023-05-24T02:41:57;98063.00;;;9.80
19666;BMP180;9980;51.020;7.772;2023-05-24T02:44:24;98052.00;;;9.80
19666;BMP180;9980;51.020;7.772;2023-05-24T02:46:52;98060.00;;;9.80
19666;BMP180;9980;51.020;7.772;2023-05-24T02:49:19;98076.00;;;9.80
19666;BMP180;9980;51.020;7.772;2023-05-24T02:51:46;98067.00;;;9.70
19666;BMP180;9980;51.020;7.772;2023-05-24T02:54:13;98070.00;;;9.70
19666;BMP180;9980;51.020;7.772;2023-05-24T02:56:39;98080.00;;;9.70
19666;BMP180;9980;51.020;7.772;2023-05-24T02:59:07;98060.00;;;9.60
19666;BMP180;9980;51.020;7.772;2023-05-24T03:01:34;98070.00;;;9.70
19666;BMP180;9980;51.020;7.772;2023-05-24T03:04:02;98070.00;;;9.60
19666;BMP180;9980;51.020;7.772;2023-05-24T03:06:30;98082.00;;;9.60
19666;BMP180;9980;51.020;7.772;2023-05-24T03:08:56;98067.00;;;9.60
19666;BMP180;9980;51.020;7.772;2023-05-24T03:11:24;98060.00;;;9.70
19666;BMP180;9980;51.020;7.772;2023-05-24T03:13:52;98057.00;;;9.60
19666;BMP180;9980;51.020;7.772;2023-05-24T03:16:19;98059.00;;;9.70
19666;BMP180;9980;51.020;7.772;2023-05-24T03:18:47;98065.00;;;9.60
19666;BMP180;9980;51.020;7.772;2023-05-24T03:21:17;98067.00;;;9.70
19666;BMP180;9980;51.020;7.772;2023-05-24T03:23:46;98061.00;;;9.70
19666;BMP180;9980;51.020;7.772;2023-05-24T03:26:13;98053.00;;;9.60
19666;BMP180;9980;51.020;7.772;2023-05-24T03:28:40;98060.00;;;9.70
19666;BMP180;9980;51.020;7.772;2023-05-24T03:31:07;98051.00;;;9.70
19666;BMP180;9980;51.020;7.772;2023-05-24T03:33:35;98065.00;;;9.70
19666;BMP180;9980;51.020;7.772;2023-05-24T03:36:02;98064.00;;;9.70
19666;BMP180;9980;51.020;7.772;2023-05-24T03:38:34;98078.00;;;9.70
19666;BMP180;9980;51.020;7.772;2023-05-24T03:41:01;98076.00;;;9.70
19666;BMP180;9980;51.020;7.772;2023-05-24T03:43:29;98069.00;;;9.70
19666;BMP180;9980;51.020;7.772;2023-05-24T03:46:00;98073.00;;;9.70
19666;BMP180;9980;51.020;7.772;2023-05-24T03:48:27;98072.00;;;9.70
19666;BMP180;9980;51.020;7.772;2023-05-24T03:50:54;98091.00;;;9.80
19666;BMP180;9980;51.020;7.772;2023-05-24T03:53:21;98088.00;;;9.80
19666;BMP180;9980;51.020;7.772;2023-05-24T03:55:49;98081.00;;;9.80
19666;BMP180;9980;51.020;7.772;2023-05-24T03:58:16;98068.00;;;9.80
19666;BMP180;9980;51.020;7.772;2023-05-24T04:00:43;98080.00;;;9.80
19666;BMP180;9980;51.020;7.772;2023-05-24T04:03:11;98083.00;;;9.90
19666;BMP180;9980;51.020;7.772;2023-05-24T04:05:38;98084.00;;;9.90
19666;BMP180;9980;51.020;7.772;2023-05-24T04:08:06;98087.00;;;9.90
19666;BMP180;9980;51.020;7.772;2023-05-24T04:10:36;98099.00;;;9.90
19666;BMP180;9980;51.020;7.772;2023-05-24T04:13:03;98087.00;;;10.00
19666;BMP180;9980;51.020;7.772;2023-05-24T04:15:34;98089.00;;;10.00
19666;BMP180;9980;51.020;7.772;2023-05-24T04:18:01;98105.00;;;10.10
19666;BMP180;9980;51.020;7.772;2023-05-24T04:20:29;98112.00;;;10.10
19666;BMP180;9980;51.020;7.772;2023-05-24T04:22:56;98095.00;;;10.10
19666;BMP180;9980;51.020;7.772;2023-05-24T04:25:23;98105.00;;;10.20
19666;BMP180;9980;51.020;7.772;2023-05-24T04:27:50;98111.00;;;10.20
19666;BMP180;9980;51.020;7.772;2023-05-24T04:30:17;98116.00;;;10.30
19666;BMP180;9980;51.020;7.772;2023-05-24T04:32:44;98123.00;;;10.30
19666;BMP180;9980;51.020;7.772;2023-05-24T04:35:11;98104.00;;;10.40
19666;BMP180;9980;51.020;7.772;2023-05-24T04:37:39;98108.00;;;10.40
19666;BMP180;9980;51.020;7.772;2023-05-24T04:40:11;98112.00;;;10.40
19666;BMP180;9980;51.020;7.772;2023-05-24T04:42:38;98110.00;;;10.50
19666;BMP180;9980;51.020;7.772;2023-05-24T04:45:05;98121.00;;;10.50
19666;BMP180;9980;51.020;7.772;2023-05-24T04:47:32;98110.00;;;10.60
19666;BMP180;9980;51.020;7.772;2023-05-24T04:49:59;98120.00;;;10.70
19666;BMP180;9980;51.020;7.772;2023-05-24T04:52:27;98118.00;;;10.70
19666;BMP180;9980;51.020;7.772;2023-05-24T04:54:53;98125.00;;;10.80
19666;BMP180;9980;51.020;7.772;2023-05-24T04:57:21;98129.00;;;10.80
19666;BMP180;9980;51.020;7.772;2023-05-24T04:59:48;98145.00;;;10.90
19666;BMP180;9980;51.020;7.772;2023-05-24T05:02:15;98119.00;;;10.90
19666;BMP180;9980;51.020;7.772;2023-05-24T05:04:43;98134.00;;;10.90
19666;BMP180;9980;51.020;7.772;2023-05-24T05:07:10;98137.00;;;11.00
19666;BMP180;9980;51.020;7.772;2023-05-24T05:09:37;98156.00;;;11.00
19666;BMP180;9980;51.020;7.772;2023-05-24T05:12:04;98150.00;;;11.00
19666;BMP180;9980;51.020;7.772;2023-05-24T05:14:31;98143.00;;;11.10
19666;BMP180;9980;51.020;7.772;2023-05-24T05:16:58;98143.00;;;11.10
19666;BMP180;9980;51.020;7.772;2023-05-24T05:19:24;98157.00;;;11.20
19666;BMP180;9980;51.020;7.772;2023-05-24T05:21:51;98153.00;;;11.20
19666;BMP180;9980;51.020;7.772;2023-05-24T05:24:18;98155.00;;;11.30
19666;BMP180;9980;51.020;7.772;2023-05-24T05:26:45;98141.00;;;11.40
19666;BMP180;9980;51.020;7.772;2023-05-24T05:29:12;98147.00;;;11.40
19666;BMP180;9980;51.020;7.772;2023-05-24T05:31:39;98148.00;;;11.50
19666;BMP180;9980;51.020;7.772;2023-05-24T05:34:06;98157.00;;;11.50
19666;BMP180;9980;51.020;7.772;2023-05-24T05:36:37;98148.00;;;11.60
19666;BMP180;9980;51.020;7.772;2023-05-24T05:39:08;98145.00;;;11.70
19666;BMP180;9980;51.020;7.772;2023-05-24T05:41:37;98140.00;;;11.70
19666;BMP180;9980;51.020;7.772;2023-05-24T05:44:05;98121.00;;;11.80
19666;BMP180;9980;51.020;7.772;2023-05-24T05:46:32;98110.00;;;11.90
19666;BMP180;9980;51.020;7.772;2023-05-24T05:48:59;98104.00;;;11.90
19666;BMP180;9980;51.020;7.772;2023-05-24T05:51:26;98105.00;;;12.00
19666;BMP180;9980;51.020;7.772;2023-05-24T05:53:53;98100.00;;;12.10
19666;BMP180;9980;51.020;7.772;2023-05-24T05:56:20;98115.00;;;12.20
19666;BMP180;9980;51.020;7.772;2023-05-24T05:58:47;98115.00;;;12.20
19666;BMP180;9980;51.020;7.772;2023-05-24T06:01:15;98126.00;;;12.30
19666;BMP180;9980;51.020;7.772;2023-05-24T06:03:42;98106.00;;;12.30
19666;BMP180;9980;51.020;7.772;2023-05-24T06:06:09;98118.00;;;12.40
19666;BMP180;9980;51.020;7.772;2023-05-24T06:08:36;98105.00;;;12.40
19666;BMP180;9980;51.020;7.772;2023-05-24T06:11:06;98108.00;;;12.50
19666;BMP180;9980;51.020;7.772;2023-05-24T06:13:33;98116.00;;;12.60
19666;BMP180;9980;51.020;7.772;2023-05-24T06:16:00;98111.00;;;12.60
19666;BMP180;9980;51.020;7.772;2023-05-24T06:18:27;98125.00;;;12.70
19666;BMP180;9980;51.020;7.772;2023-05-24T06:20:56;98122.00;;;12.70
19666;BMP180;9980;51.020;7.772;2023-05-24T06:23:23;98127.00;;;12.70
19666;BMP180;9980;51.020;7.772;2023-05-24T06:25:50;98117.00;;;12.80
19666;BMP180;9980;51.020;7.772;2023-05-24T06:28:17;98138.00;;;12.80
19666;BMP180;9980;51.020;7.772;2023-05-24T06:30:45;98139.00;;;12.90
19666;BMP180;9980;51.020;7.772;2023-05-24T06:33:13;98123.00;;;12.90
19666;BMP180;9980;51.020;7.772;2023-05-24T06:35:40;98122.00;;;13.00
19666;BMP180;9980;51.020;7.772;2023-05-24T06:38:06;98115.00;;;13.10
19666;BMP180;9980;51.020;7.772;2023-05-24T06:40:34;98123.00;;;13.10
19666;BMP180;9980;51.020;7.772;2023-05-24T06:43:01;98134.00;;;13.20
19666;BMP180;9980;51.020;7.772;2023-05-24T06:45:28;98153.00;;;13.30
19666;BMP180;9980;51.020;7.772;2023-05-24T06:47:55;98151.00;;;13.30
19666;BMP180;9980;51.020;7.772;2023-05-24T06:50:23;98146.00;;;13.30
19666;BMP180;9980;51.020;7.772;2023-05-24T06:52:50;98143.00;;;13.40
19666;BMP180;9980;51.020;7.772;2023-05-24T06:55:18;98164.00;;;13.40
19666;BMP180;9980;51.020;7.772;2023-05-24T06:57:45;98150.00;;;13.50
19666;BMP180;9980;51.020;7.772;2023-05-24T07:00:13;98169.00;;;13.50
19666;BMP180;9980;51.020;7.772;2023-05-24T07:02:40;98170.00;;;13.60
19666;BMP180;9980;51.020;7.772;2023-05-24T07:05:08;98158.00;;;13.60
19666;BMP180;9980;51.020;7.772;2023-05-24T07:07:42;98169.00;;;13.70
19666;BMP180;9980;51.020;7.772;2023-05-24T07:10:10;98170.00;;;13.70
19666;BMP180;9980;51.020;7.772;2023-05-24T07:12:37;98169.00;;;13.80
19666;BMP180;9980;51.020;7.772;2023-05-24T07:15:05;98173.00;;;13.80
19666;BMP180;9980;51.020;7.772;2023-05-24T07:17:34;98164.00;;;13.90
19666;BMP180;9980;51.020;7.772;2023-05-24T07:20:01;98160.00;;;14.00
19666;BMP180;9980;51.020;7.772;2023-05-24T07:22:28;98160.00;;;14.10
19666;BMP180;9980;51.020;7.772;2023-05-24T07:24:57;98158.00;;;14.20
19666;BMP180;9980;51.020;7.772;2023-05-24T07:27:24;98162.00;;;14.30
19666;BMP180;9980;51.020;7.772;2023-05-24T07:29:51;98168.00;;;14.40
19666;BMP180;9980;51.020;7.772;2023-05-24T07:32:18;98166.00;;;14.50
19666;BMP180;9980;51.020;7.772;2023-05-24T07:34:45;98161.00;;;14.60
19666;BMP180;9980;51.020;7.772;2023-05-24T07:37:12;98153.00;;;14.80
19666;BMP180;9980;51.020;7.772;2023-05-24T07:39:39;98161.00;;;14.90
19666;BMP180;9980;51.020;7.772;2023-05-24T07:42:06;98159.00;;;15.00
19666;BMP180;9980;51.020;7.772;2023-05-24T07:44:33;98156.00;;;15.10
19666;BMP180;9980;51.020;7.772;2023-05-24T07:47:00;98170.00;;;15.30
19666;BMP180;9980;51.020;7.772;2023-05-24T07:49:28;98182.00;;;15.40
19666;BMP180;9980;51.020;7.772;2023-05-24T07:51:55;98170.00;;;15.40
19666;BMP180;9980;51.020;7.772;2023-05-24T07:54:25;98176.00;;;15.50
19666;BMP180;9980;51.020;7.772;2023-05-24T07:56:52;98163.00;;;15.60
19666;BMP180;9980;51.020;7.772;2023-05-24T07:59:19;98183.00;;;15.60
19666;BMP180;9980;51.020;7.772;2023-05-24T08:01:46;98175.00;;;15.70
19666;BMP180;9980;51.020;7.772;2023-05-24T08:04:13;98167.00;;;15.80
19666;BMP180;9980;51.020;7.772;2023-05-24T08:06:40;98161.00;;;15.90
19666;BMP180;9980;51.020;7.772;2023-05-24T08:09:08;98158.00;;;15.90
19666;BMP180;9980;51.020;7.772;2023-05-24T08:11:35;98158.00;;;16.00
19666;BMP180;9980;51.020;7.772;2023-05-24T08:14:02;98164.00;;;16.00
19666;BMP180;9980;51.020;7.772;2023-05-24T08:16:30;98156.00;;;16.00
19666;BMP180;9980;51.020;7.772;2023-05-24T08:18:57;98162.00;;;16.10
19666;BMP180;9980;51.020;7.772;2023-05-24T08:21:24;98162.00;;;16.20
19666;BMP180;9980;51.020;7.772;2023-05-24T08:23:52;98172.00;;;16.20
19666;BMP180;9980;51.020;7.772;2023-05-24T08:26:18;98166.00;;;16.30
19666;BMP180;9980;51.020;7.772;2023-05-24T08:28:46;98171.00;;;16.30
19666;BMP180;9980;51.020;7.772;2023-05-24T08:31:13;98172.00;;;16.40
19666;BMP180;9980;51.020;7.772;2023-05-24T08:33:41;98181.00;;;16.40
19666;BMP180;9980;51.020;7.772;2023-05-24T08:36:08;98171.00;;;16.40
19666;BMP180;9980;51.020;7.772;2023-05-24T08:38:36;98173.00;;;16.40
19666;BMP180;9980;51.020;7.772;2023-05-24T08:41:05;98178.00;;;16.40
19666;BMP180;9980;51.020;7.772;2023-05-24T08:43:35;98172.00;;;16.40
19666;BMP180;9980;51.020;7.772;2023-05-24T08:46:04;98170.00;;;16.40
19666;BMP180;9980;51.020;7.772;2023-05-24T08:48:34;98162.00;;;16.50
19666;BMP180;9980;51.020;7.772;2023-05-24T08:51:06;98161.00;;;16.60
19666;BMP180;9980;51.020;7.772;2023-05-24T08:53:36;98165.00;;;16.60
19666;BMP180;9980;51.020;7.772;2023-05-24T08:56:06;98162.00;;;16.70
19666;BMP180;9980;51.020;7.772;2023-05-24T08:58:37;98163.00;;;16.70
19666;BMP180;9980;51.020;7.772;2023-05-24T09:01:04;98164.00;;;16.80
19666;BMP180;9980;51.020;7.772;2023-05-24T09:03:35;98165.00;;;16.80
19666;BMP180;9980;51.020;7.772;2023-05-24T09:06:03;98174.00;;;16.80
19666;BMP180;9980;51.020;7.772;2023-05-24T09:08:31;98174.00;;;16.80
19666;BMP180;9980;51.020;7.772;2023-05-24T09:11:02;98174.00;;;16.90
19666;BMP180;9980;51.020;7.772;2023-05-24T09:13:30;98180.00;;;16.90
19666;BMP180;9980;51.020;7.772;2023-05-24T09:15:58;98166.00;;;16.90
19666;BMP180;9980;51.020;7.772;2023-05-24T09:18:25;98171.00;;;16.90
19666;BMP180;9980;51.020;7.772;2023-05-24T09:20:53;98175.00;;;17.00
19666;BMP180;9980;51.020;7.772;2023-05-24T09:23:21;98183.00;;;17.00
19666;BMP180;9980;51.020;7.772;2023-05-24T09:25:49;98181.00;;;17.00
19666;BMP180;9980;51.020;7.772;2023-05-24T09:28:17;98171.00;;;17.00
19666;BMP180;9980;51.020;7.772;2023-05-24T09:30:57;98176.00;;;17.00
19666;BMP180;9980;51.020;7.772;2023-05-24T09:33:31;98174.00;;;17.00
19666;BMP180;9980;51.020;7.772;2023-05-24T09:36:01;98178.00;;;17.00
19666;BMP180;9980;51.020;7.772;2023-05-24T09:38:29;98174.00;;;17.10
19666;BMP180;9980;51.020;7.772;2023-05-24T09:41:07;98170.00;;;17.10
19666;BMP180;9980;51.020;7.772;2023-05-24T09:43:47;98174.00;;;17.10
19666;BMP180;9980;51.020;7.772;2023-05-24T09:46:18;98184.00;;;17.20
19666;BMP180;9980;51.020;7.772;2023-05-24T09:48:59;98176.00;;;17.30
19666;BMP180;9980;51.020;7.772;2023-05-24T09:51:29;98165.00;;;17.40
19666;BMP180;9980;51.020;7.772;2023-05-24T09:54:00;98173.00;;;17.50
19666;BMP180;9980;51.020;7.772;2023-05-24T09:56:28;98159.00;;;17.60
19666;BMP180;9980;51.020;7.772;2023-05-24T09:58:55;98154.00;;;17.70
19666;BMP180;9980;51.020;7.772;2023-05-24T10:01:23;98161.00;;;17.70
19666;BMP180;9980;51.020;7.772;2023-05-24T10:03:58;98156.00;;;17.80
19666;BMP180;9980;51.020;7.772;2023-05-24T10:06:32;98144.00;;;17.90
19666;BMP180;9980;51.020;7.772;2023-05-24T10:09:03;98147.00;;;18.00
19666;BMP180;9980;51.020;7.772;2023-05-24T10:11:34;98158.00;;;18.10
19666;BMP180;9980;51.020;7.772;2023-05-24T10:14:09;98160.00;;;18.20
19666;BMP180;9980;51.020;7.772;2023-05-24T10:16:36;98156.00;;;18.30
19666;BMP180;9980;51.020;7.772;2023-05-24T10:19:04;98152.00;;;18.40
19666;BMP180;9980;51.020;7.772;2023-05-24T10:21:35;98153.00;;;18.40
19666;BMP180;9980;51.020;7.772;2023-05-24T10:24:06;98158.00;;;18.50
19666;BMP180;9980;51.020;7.772;2023-05-24T10:26:37;98145.00;;;18.50
19666;BMP180;9980;51.020;7.772;2023-05-24T10:29:10;98160.00;;;18.50
19666;BMP180;9980;51.020;7.772;2023-05-24T10:31:43;98157.00;;;18.60
19666;BMP180;9980;51.020;7.772;2023-05-24T10:34:11;98151.00;;;18.60
19666;BMP180;9980;51.020;7.772;2023-05-24T10:36:38;98152.00;;;18.70
19666;BMP180;9980;51.020;7.772;2023-05-24T10:39:08;98153.00;;;18.70
19666;BMP180;9980;51.020;7.772;2023-05-24T10:41:41;98158.00;;;18.70
19666;BMP180;9980;51.020;7.772;2023-05-24T10:44:13;98165.00;;;18.70
19666;BMP180;9980;51.020;7.772;2023-05-24T10:47:24;98148.00;;;18.70
19666;BMP180;9980;51.020;7.772;2023-05-24T10:49:56;98155.00;;;18.80
19666;BMP180;9980;51.020;7.772;2023-05-24T10:52:34;98155.00;;;18.80
19666;BMP180;9980;51.020;7.772;2023-05-24T10:55:08;98149.00;;;18.80
19666;BMP180;9980;51.020;7.772;2023-05-24T10:57:37;98162.00;;;18.80
19666;BMP180;9980;51.020;7.772;2023-05-24T11:03:01;98169.00;;;18.80
19666;BMP180;9980;51.020;7.772;2023-05-24T11:08:30;98150.00;;;18.80
19666;BMP180;9980;51.020;7.772;2023-05-24T11:11:05;98159.00;;;18.70
19666;BMP180;9980;51.020;7.772;2023-05-24T11:13:55;98144.00;;;18.60
19666;BMP180;9980;51.020;7.772;2023-05-24T11:16:38;98143.00;;;18.60
19666;BMP180;9980;51.020;7.772;2023-05-24T11:21:48;98143.00;;;18.60
19666;BMP180;9980;51.020;7.772;2023-05-24T11:24:34;98150.00;;;18.60
19666;BMP180;9980;51.020;7.772;2023-05-24T11:27:01;98151.00;;;18.70
19666;BMP180;9980;51.020;7.772;2023-05-24T11:29:29;98138.00;;;18.70
19666;BMP180;9980;51.020;7.772;2023-05-24T11:31:59;98147.00;;;18.70
19666;BMP180;9980;51.020;7.772;2023-05-24T11:34:32;98143.00;;;18.80
19666;BMP180;9980;51.020;7.772;2023-05-24T11:37:01;98134.00;;;18.80
19666;BMP180;9980;51.020;7.772;2023-05-24T11:39:31;98147.00;;;18.80
19666;BMP180;9980;51.020;7.772;2023-05-24T11:41:59;98152.00;;;18.80
19666;BMP180;9980;51.020;7.772;2023-05-24T11:44:30;98151.00;;;18.80
19666;BMP180;9980;51.020;7.772;2023-05-24T11:47:01;98148.00;;;18.80
19666;BMP180;9980;51.020;7.772;2023-05-24T11:49:29;98152.00;;;18.80
19666;BMP180;9980;51.020;7.772;2023-05-24T11:51:58;98156.00;;;18.80
19666;BMP180;9980;51.020;7.772;2023-05-24T11:54:27;98144.00;;;18.80
19666;BMP180;9980;51.020;7.772;2023-05-24T11:56:54;98146.00;;;18.80
19666;BMP180;9980;51.020;7.772;2023-05-24T11:59:25;98151.00;;;18.80
19666;BMP180;9980;51.020;7.772;2023-05-24T12:02:00;98164.00;;;18.70
19666;BMP180;9980;51.020;7.772;2023-05-24T12:04:29;98161.00;;;18.70
19666;BMP180;9980;51.020;7.772;2023-05-24T12:06:57;98148.00;;;18.60
19666;BMP180;9980;51.020;7.772;2023-05-24T12:09:24;98152.00;;;18.60
19666;BMP180;9980;51.020;7.772;2023-05-24T12:11:52;98167.00;;;18.50
19666;BMP180;9980;51.020;7.772;2023-05-24T12:14:27;98155.00;;;18.40
19666;BMP180;9980;51.020;7.772;2023-05-24T12:16:55;98162.00;;;18.40
19666;BMP180;9980;51.020;7.772;2023-05-24T12:19:24;98160.00;;;18.30
19666;BMP180;9980;51.020;7.772;2023-05-24T12:22:00;98163.00;;;18.20
19666;BMP180;9980;51.020;7.772;2023-05-24T12:24:30;98171.00;;;18.20
19666;BMP180;9980;51.020;7.772;2023-05-24T12:27:00;98160.00;;;18.20
19666;BMP180;9980;51.020;7.772;2023-05-24T12:29:36;98187.00;;;18.10
19666;BMP180;9980;51.020;7.772;2023-05-24T12:32:05;98162.00;;;18.10
19666;BMP180;9980;51.020;7.772;2023-05-24T12:34:41;98167.00;;;18.00
19666;BMP180;9980;51.020;7.772;2023-05-24T12:37:10;98157.00;;;18.00
19666;BMP180;9980;51.020;7.772;2023-05-24T12:39:37;98162.00;;;17.90
19666;BMP180;9980;51.020;7.772;2023-05-24T12:42:05;98161.00;;;17.90
19666;BMP180;9980;51.020;7.772;2023-05-24T12:44:37;98180.00;;;17.90
19666;BMP180;9980;51.020;7.772;2023-05-24T12:47:06;98172.00;;;17.90
19666;BMP180;9980;51.020;7.772;2023-05-24T12:49:34;98179.00;;;17.90
19666;BMP180;9980;51.020;7.772;2023-05-24T12:52:01;98174.00;;;17.90
19666;BMP180;9980;51.020;7.772;2023-05-24T12:54:29;98180.00;;;17.90
19666;BMP180;9980;51.020;7.772;2023-05-24T12:56:57;98182.00;;;17.80
19666;BMP180;9980;51.020;7.772;2023-05-24T12:59:32;98172.00;;;17.80
19666;BMP180;9980;51.020;7.772;2023-05-24T13:01:59;98177.00;;;17.80
19666;BMP180;9980;51.020;7.772;2023-05-24T13:04:26;98180.00;;;17.80
19666;BMP180;9980;51.020;7.772;2023-05-24T13:10:17;98179.00;;;17.80
19666;BMP180;9980;51.020;7.772;2023-05-24T13:12:45;98169.00;;;17.80
19666;BMP180;9980;51.020;7.772;2023-05-24T13:15:13;98173.00;;;17.80
19666;BMP180;9980;51.020;7.772;2023-05-24T13:17:40;98180.00;;;17.80
19666;BMP180;9980;51.020;7.772;2023-05-24T13:20:09;98164.00;;;17.80
19666;BMP180;9980;51.020;7.772;2023-05-24T13:22:38;98175.00;;;17.80
19666;BMP180;9980;51.020;7.772;2023-05-24T13:25:06;98177.00;;;17.80
19666;BMP180;9980;51.020;7.772;2023-05-24T13:27:34;98173.00;;;17.90
19666;BMP180;9980;51.020;7.772;2023-05-24T13:30:01;98163.00;;;17.90
19666;BMP180;9980;51.020;7.772;2023-05-24T13:32:28;98164.00;;;18.00
19666;BMP180;9980;51.020;7.772;2023-05-24T13:34:55;98163.00;;;18.00
19666;BMP180;9980;51.020;7.772;2023-05-24T13:37:23;98159.00;;;18.10
19666;BMP180;9980;51.020;7.772;2023-05-24T13:39:50;98158.00;;;18.20
19666;BMP180;9980;51.020;7.772;2023-05-24T13:42:17;98158.00;;;18.30
19666;BMP180;9980;51.020;7.772;2023-05-24T13:44:44;98148.00;;;18.30
19666;BMP180;9980;51.020;7.772;2023-05-24T13:47:11;98157.00;;;18.40
19666;BMP180;9980;51.020;7.772;2023-05-24T13:49:53;98140.00;;;18.50
19666;BMP180;9980;51.020;7.772;2023-05-24T13:52:20;98156.00;;;18.50
19666;BMP180;9980;51.020;7.772;2023-05-24T13:54:47;98155.00;;;18.50
19666;BMP180;9980;51.020;7.772;2023-05-24T13:57:15;98143.00;;;18.60
19666;BMP180;9980;51.020;7.772;2023-05-24T13:59:42;98148.00;;;18.60
19666;BMP180;9980;51.020;7.772;2023-05-24T14:02:09;98137.00;;;18.60
19666;BMP180;9980;51.020;7.772;2023-05-24T14:04:36;98140.00;;;18.70
19666;BMP180;9980;51.020;7.772;2023-05-24T14:07:03;98137.00;;;18.80
19666;BMP180;9980;51.020;7.772;2023-05-24T14:09:33;98144.00;;;18.90
19666;BMP180;9980;51.020;7.772;2023-05-24T14:12:00;98144.00;;;19.00
19666;BMP180;9980;51.020;7.772;2023-05-24T14:14:28;98140.00;;;19.10
19666;BMP180;9980;51.020;7.772;2023-05-24T14:16:58;98147.00;;;19.30
19666;BMP180;9980;51.020;7.772;2023-05-24T14:19:25;98142.00;;;19.40
19666;BMP180;9980;51.020;7.772;2023-05-24T14:21:53;98154.00;;;19.50
19666;BMP180;9980;51.020;7.772;2023-05-24T14:24:20;98151.00;;;19.70
19666;BMP180;9980;51.020;7.772;2023-05-24T14:26:47;98153.00;;;19.80
19666;BMP180;9980;51.020;7.772;2023-05-24T14:29:14;98139.00;;;19.90
19666;BMP180;9980;51.020;7.772;2023-05-24T14:31:42;98142.00;;;20.00
19666;BMP180;9980;51.020;7.772;2023-05-24T14:34:09;98156.00;;;20.10
19666;BMP180;9980;51.020;7.772;2023-05-24T14:36:37;98143.00;;;20.10
19666;BMP180;9980;51.020;7.772;2023-05-24T14:39:06;98140.00;;;20.20
19666;BMP180;9980;51.020;7.772;2023-05-24T14:41:33;98137.00;;;20.20
19666;BMP180;9980;51.020;7.772;2023-05-24T14:44:00;98145.00;;;20.30
19666;BMP180;9980;51.020;7.772;2023-05-24T14:46:28;98143.00;;;20.30
19666;BMP180;9980;51.020;7.772;2023-05-24T14:48:55;98140.00;;;20.30
19666;BMP180;9980;51.020;7.772;2023-05-24T14:51:22;98123.00;;;20.30
19666;BMP180;9980;51.020;7.772;2023-05-24T14:53:49;98143.00;;;20.30